KBAZKERV

Guest
Details From KBAZ - NEW BRAUNFELS MUNI
To KERV - KERRVILLE MUNI LOUIS SCHREINER FLD
Flight Number -
Tags generated
Created
Modified
Stats Distance 57 nm / 105 km
Max Altitude 3,300 ft / 1,006 m
Waypoints 3
Social Downloads 1
Likes 0
Share VATSIM

Download

Looking for another format? Having issues loading an existing format? Contact us
Advertisement - Login to hide

Notes

Basic altitude profile: - Ascent Rate: 800ft/min - Ascent Speed: 120kts - Cruise Altitude: 6500ft - Cruise Speed: 180kts - Descent Rate: 800ft/min - Descent Speed: 150kts Options: - Use NATs: yes - Use PACOTS: yes - Use low airways: yes - Use high airways: yes

Route

KBAZ TATAR KERV

ID Type Via Altitude Latitude Longitude Leg Dist Tot Dist Heading (true) Name
O KBAZ APT - 0 ft / 0 m 29.70449˚ -98.04222˚ - 0 nm - NEW BRAUNFELS MUNI
TATAR FIX - 3,300 ft / 1,006 m 29.88709˚ -98.80246˚ 41 nm 41 nm 286° / 285° -
O KERV APT - 0 ft / 0 m 29.97760˚ -99.08592˚ 15 nm 56 nm 290° / 290° KERRVILLE MUNI LOUIS SCHREINER FLD

Altitude Profile

Advertisement - Login to hide

KBAZ

Details ICAO KBAZ
Name NEW BRAUNFELS MUNI
Region United States
Timezone America/Chicago (UTC-6.0)
Stats Elevation 650 ft / 198 m (AMSL)
Location 29.704493° -98.042224°
Runways 2
Magnetic Variation 4.018° E

METAR

KBAZ 111851Z 21007KT 10SM CLR 23/01 A3024 RMK AO2 SLP238 T02280006

Decode

TAF

Not found

Departure Runways

ID Width Length Bearing (true) Bearing (mag) Surface Threshold Offset Overrun Length
13 100 ft / 30 m 5,356 ft / 1,633 m 135.87° 131.85° Asphalt 0 ft / 0 m 0 ft / 0 m
17 100 ft / 30 m 5,382 ft / 1,640 m 180.71° 176.69° Asphalt 512 ft / 156 m 0 ft / 0 m
31 100 ft / 30 m 5,356 ft / 1,633 m 315.88° 311.86° Asphalt 0 ft / 0 m 0 ft / 0 m
35 100 ft / 30 m 5,382 ft / 1,640 m 0.71° 356.69° Asphalt 0 ft / 0 m 0 ft / 0 m

KERV

Details ICAO KERV (ERV)
Name KERRVILLE MUNI LOUIS SCHREINER FLD
Region United States
Timezone America/Chicago (UTC-6.0)
Stats Elevation 1,617 ft / 493 m (AMSL)
Location 29.977599° -99.085918°
Runways 2
Magnetic Variation 4.584° E

METAR

KERV 111915Z AUTO 00000KT 10SM CLR 23/M10 A3026 RMK AO2 T02251104

Decode

TAF

Not found

Destination Runways

ID Width Length Bearing (true) Bearing (mag) Surface Threshold Offset Overrun Length
03 60 ft / 18 m 4,055 ft / 1,236 m 32.86° 28.28° Asphalt 455 ft / 139 m 0 ft / 0 m
12 100 ft / 30 m 6,002 ft / 1,829 m 130.67° 126.09° Asphalt 700 ft / 213 m 0 ft / 0 m
21 60 ft / 18 m 4,055 ft / 1,236 m 212.86° 208.28° Asphalt 0 ft / 0 m 0 ft / 0 m
30 100 ft / 30 m 6,002 ft / 1,829 m 310.68° 306.10° Asphalt 0 ft / 0 m 0 ft / 0 m

Approach Navaids

Runway Type Ident Frequency Range Bearing (true) Bearing (mag) Slope Elevation
30 Localiser IERV 109.10 MHz 18 nm / 33 km 310.66° 306.08° - 1,617 ft / 493 m (AMSL)